Terminal Aerodrome Forecast
Issued by NWS

Home | Current Version | Previous Version | Text Only | Print | Product List | Glossary On
Versions: 1 2 3 4 5 6 7 8 9 10 11 12 13 14
081
FTUS42 KGSP 102322
TAFGMU
TAF
KGMU 102322Z 1100/1124 26011KT P6SM SCT120
     FM110400 25004KT P6SM FEW250
     FM112000 24006KT P6SM SCT090
     FM112300 00000KT P6SM SCT030=

USA.gov is the U.S. government's official web portal to all federal, state and local government web resources and services.